• Join FlightAware (Why Join?)
  • Login
  • US Flag 
05:32AM EDT


 

Airport Tracker/Info


-or-


 

Live Flight TrackerFlight Track Log ✈ AWE21 ✈ 23-Jul-2013 ✈ PHNL - KPHX

Flight Track Log - Related Links

Times and Time Zones

All times are in EDT time to prevent confusion due to time zone crossing. See the AWE21 flight status page for this flight to view local times or setup timezone preferences in your user account.

Time Position Orientation Groundspeed Altitude Reporting Facility
EDT Latitude Longitude Course Direction KTS MPH feet Rate Location/Type
03:23AM 21.3167 -157.8833 163° South 180 207 1,000  Level Honolulu Center
03:24AM 21.2667 -157.8667 163° South 230 265 2,300 1,560 Climbing Honolulu Center
03:25AM 21.2000 -157.8333 155° Southeast 260 299 4,200 1,980 Climbing Honolulu Center
03:26AM 21.1667 -157.7667 118° Southeast 280 322 6,400 2,040 Climbing Honolulu Center
03:27AM 21.1833 -157.6833 78° East 280 322 8,400 1,860 Climbing Honolulu Center
03:28AM 21.2000 -157.6000 78° East 290 334 10,200 1,320 Climbing Honolulu Center
03:29AM 21.2000 -157.5000 90° East 340 391 11,100 1,080 Climbing Honolulu Center
03:30AM 21.2167 -157.3833 81° East 380 437 12,400 1,500 Climbing Honolulu Center
03:31AM 21.2333 -157.2667 81° East 390 449 14,100 1,620 Climbing Honolulu Center
03:32AM 21.2500 -157.1500 81° East 400 460 15,700 1,500 Climbing Honolulu Center
03:33AM 21.2667 -157.0333 81° East 410 472 17,200 1,380 Climbing Honolulu Center
03:34AM 21.2833 -156.9000 82° East 420 483 18,500 1,140 Climbing Honolulu Center
03:35AM 21.3000 -156.7667 82° East 440 506 19,600 1,140 Climbing Honolulu Center
03:36AM 21.3167 -156.6500 81° East 440 506 20,800 1,200 Climbing Honolulu Center
03:37AM 21.3333 -156.5167 82° East 450 518 22,100 1,140 Climbing Honolulu Center
03:38AM 21.3500 -156.3833 82° East 450 518 23,100 1,020 Climbing Honolulu Center
03:39AM 21.3667 -156.2333 83° East 460 529 24,200 900 Climbing Honolulu Center
03:40AM 21.3833 -156.1000 82° East 460 529 25,000 840 Climbing Honolulu Center
03:41AM 21.4000 -155.9500 83° East 480 552 26,000 960 Climbing Honolulu Center
03:42AM 21.4167 -155.8333 81° East 490 564 27,000 900 Climbing Honolulu Center
03:43AM 21.4500 -155.6833 77° East 500 575 27,900 840 Climbing Honolulu Center
03:44AM 21.5000 -155.5500 68° East 510 587 28,700 1,080 Climbing Honolulu Center
03:45AM 21.5333 -155.4000 77° East 510 587 30,100 1,260 Climbing Honolulu Center
03:46AM 21.5667 -155.2500 77° East 500 575 31,300 1,200 Climbing Honolulu Center
03:47AM 21.6000 -155.1000 77° East 500 575 32,500 1,140 Climbing Honolulu Center
03:48AM 21.6333 -154.9500 77° East 510 587 33,600 1,020 Climbing Honolulu Center
03:49AM 21.6667 -154.8167 75° East 500 575 34,600 660 Climbing Honolulu Center
03:50AM 21.7000 -154.6667 77° East 500 575 35,000 180 Climbing Honolulu Center
03:51AM 21.7333 -154.5167 77° East 510 587 35,000  Level Honolulu Center
03:52AM 21.7667 -154.3667 77° East 500 575 35,000  Level Honolulu Center
03:53AM 21.8000 -154.2333 75° East 500 575 35,000  Level Honolulu Center
03:54AM 21.8333 -154.0833 77° East 500 575 35,000  Level Honolulu Center
03:55AM 21.8833 -153.9333 70° East 510 587 35,000  Level Honolulu Center
03:56AM 21.9167 -153.7667 78° East 490 564 35,000  Level Honolulu Center
03:57AM 21.9500 -153.6333 75° East 500 575 35,000  Level Honolulu Center
03:58AM 21.9833 -153.4833 76° East 490 564 35,000  Level Honolulu Center
04:00AM 22.0407 -153.2316 76° East  Level FlightAware Approximate
04:07AM 22.2602 -152.2505 76° East  Level FlightAware Approximate
04:08AM 22.2910 -152.1102 77° East  Level FlightAware Approximate
04:09AM 22.3218 -151.9697 77° East  Level FlightAware Approximate
04:10AM 22.3578 -151.8333 62° Northeast  Level FlightAware Approximate
04:11AM 22.4203 -151.7057 62° Northeast  Level FlightAware Approximate
04:11AM 22.3500 -151.8833 62° Northeast 500 575 35,000  Level Oakland Oceanic (ODAPS)
04:12AM 22.4827 -151.5779 62° Northeast  Level FlightAware Approximate
04:13AM 22.5455 -151.4489 62° Northeast  Level FlightAware Approximate
04:14AM 22.6082 -151.3197 62° Northeast  Level FlightAware Approximate
04:15AM 22.6709 -151.1903 62° Northeast  Level FlightAware Approximate
04:16AM 22.7334 -151.0609 62° Northeast  Level FlightAware Approximate
04:17AM 22.7958 -150.9314 62° Northeast  Level FlightAware Approximate
04:18AM 22.9956 -150.5526 63° Northeast 500 575 35,000  Level FlightAware Transoceanic
04:19AM 23.0596 -150.4189 63° Northeast 500 575 35,000  Level FlightAware Transoceanic
04:20AM 23.1234 -150.2850 63° Northeast 500 575 35,000  Level FlightAware Transoceanic
04:21AM 23.1872 -150.1510 63° Northeast 500 575 35,000  Level FlightAware Transoceanic
04:22AM 23.2508 -150.0168 63° Northeast 500 575 35,000  Level FlightAware Transoceanic
04:23AM 23.3143 -149.8825 63° Northeast 500 575 35,000  Level FlightAware Transoceanic
04:24AM 23.3777 -149.7481 63° Northeast 500 575 35,000  Level FlightAware Transoceanic
04:25AM 23.4409 -149.6136 63° Northeast 500 575 35,000  Level FlightAware Transoceanic
04:26AM 23.5041 -149.4789 63° Northeast 500 575 35,000  Level FlightAware Transoceanic
04:27AM 23.5671 -149.3442 63° Northeast 500 575 35,000  Level FlightAware Transoceanic
04:28AM 23.6301 -149.2092 63° Northeast 500 575 35,000  Level FlightAware Transoceanic
04:29AM 23.6929 -149.0742 63° Northeast 500 575 35,000  Level FlightAware Transoceanic
04:30AM 23.7556 -148.9390 63° Northeast 500 575 35,000  Level FlightAware Transoceanic
04:31AM 23.8181 -148.8037 63° Northeast 500 575 35,000  Level FlightAware Transoceanic
04:32AM 23.8806 -148.6683 63° Northeast 500 575 35,000  Level FlightAware Transoceanic
04:33AM 23.9429 -148.5327 63° Northeast 500 575 35,000  Level FlightAware Transoceanic
04:34AM 24.0051 -148.3970 63° Northeast 500 575 35,000  Level FlightAware Transoceanic
04:35AM 24.0672 -148.2612 63° Northeast 500 575 35,000  Level FlightAware Transoceanic
04:36AM 24.1292 -148.1252 63° Northeast 500 575 35,000  Level FlightAware Transoceanic
04:37AM 24.1911 -147.9891 64° Northeast 500 575 35,000  Level FlightAware Transoceanic
04:38AM 24.2528 -147.8529 64° Northeast 500 575 35,000  Level FlightAware Transoceanic
04:39AM 24.3144 -147.7166 64° Northeast 500 575 35,000  Level FlightAware Transoceanic
04:40AM 24.3759 -147.5801 64° Northeast 500 575 35,000  Level FlightAware Transoceanic
04:41AM 24.4373 -147.4434 64° Northeast 500 575 35,000  Level FlightAware Transoceanic
04:42AM 24.4985 -147.3067 64° Northeast 500 575 35,000  Level FlightAware Transoceanic
04:43AM 24.5596 -147.1698 64° Northeast 500 575 35,000  Level FlightAware Transoceanic
04:44AM 24.6206 -147.0328 64° Northeast 500 575 35,000  Level FlightAware Transoceanic
04:45AM 24.6815 -146.8956 64° Northeast 500 575 35,000  Level FlightAware Transoceanic
04:46AM 24.7423 -146.7583 64° Northeast 500 575 35,000  Level FlightAware Transoceanic
04:47AM 24.8029 -146.6209 64° Northeast 500 575 35,000  Level FlightAware Transoceanic
04:48AM 24.8634 -146.4834 64° Northeast 500 575 35,000  Level FlightAware Transoceanic
04:49AM 24.9238 -146.3457 64° Northeast 500 575 35,000  Level FlightAware Transoceanic
04:50AM 24.9840 -146.2078 64° Northeast 500 575 35,000  Level FlightAware Transoceanic
04:51AM 25.0441 -146.0699 64° Northeast 500 575 35,000  Level FlightAware Transoceanic
04:52AM 25.1041 -145.9318 64° Northeast 500 575 35,000  Level FlightAware Transoceanic
04:53AM 25.1640 -145.7935 64° Northeast 500 575 35,000  Level FlightAware Transoceanic
04:54AM 25.2237 -145.6552 65° Northeast 500 575 35,000  Level FlightAware Transoceanic
04:55AM 25.2833 -145.5167 65° Northeast 500 575 35,000  Level FlightAware Transoceanic
04:56AM 25.3425 -145.3780 65° Northeast 500 575 35,000  Level FlightAware Transoceanic
04:57AM 25.4016 -145.2392 65° Northeast 500 575 35,000  Level FlightAware Transoceanic
04:57AM 25.2833 -145.5167 65° Northeast 509 586 35,000  Level Oakland Oceanic (ODAPS)
04:58AM 25.4605 -145.1003 65° Northeast 500 575 35,000  Level FlightAware Transoceanic
04:59AM 25.5193 -144.9612 65° Northeast 500 575 35,000  Level FlightAware Transoceanic
05:00AM 25.5779 -144.8220 65° Northeast 500 575 35,000  Level FlightAware Transoceanic
05:01AM 25.6365 -144.6826 65° Northeast 500 575 35,000  Level FlightAware Transoceanic
05:02AM 25.6949 -144.5431 65° Northeast 500 575 35,000  Level FlightAware Transoceanic
05:03AM 25.7531 -144.4035 65° Northeast 500 575 35,000  Level FlightAware Transoceanic
05:04AM 25.8226 -144.2364 65° Northeast 509 586 35,000  Level FlightAware Transoceanic
05:05AM 25.8818 -144.0934 65° Northeast 509 586 35,000  Level FlightAware Transoceanic
05:06AM 25.9409 -143.9503 65° Northeast 509 586 35,000  Level FlightAware Transoceanic
05:07AM 25.9999 -143.8071 65° Northeast 509 586 35,000  Level FlightAware Transoceanic
05:08AM 26.0587 -143.6637 66° East 509 586 35,000  Level FlightAware Transoceanic
05:09AM 26.1173 -143.5201 66° East 509 586 35,000  Level FlightAware Transoceanic
05:10AM 26.1759 -143.3764 66° East 509 586 35,000  Level FlightAware Transoceanic
05:11AM 26.2342 -143.2326 66° East 509 586 35,000  Level FlightAware Transoceanic
05:12AM 26.2925 -143.0886 66° East 509 586 35,000  Level FlightAware Transoceanic
05:13AM 26.3506 -142.9445 66° East 509 586 35,000  Level FlightAware Transoceanic
05:14AM 26.4085 -142.8002 66° East 509 586 35,000  Level FlightAware Transoceanic
05:15AM 26.4663 -142.6558 66° East 509 586 35,000  Level FlightAware Transoceanic
05:16AM 26.5240 -142.5113 66° East 509 586 35,000  Level FlightAware Transoceanic
05:17AM 26.5815 -142.3666 66° East 509 586 35,000  Level FlightAware Transoceanic
05:18AM 26.6389 -142.2217 66° East 509 586 35,000  Level FlightAware Transoceanic
05:19AM 26.6961 -142.0768 66° East 509 586 35,000  Level FlightAware Transoceanic
05:20AM 26.7532 -141.9316 66° East 509 586 35,000  Level FlightAware Transoceanic
05:21AM 26.8101 -141.7863 66° East 509 586 35,000  Level FlightAware Transoceanic
05:22AM 26.8668 -141.6409 66° East 509 586 35,000  Level FlightAware Transoceanic
05:23AM 26.9235 -141.4953 66° East 509 586 35,000  Level FlightAware Transoceanic
05:24AM 26.9799 -141.3496 67° East 509 586 35,000  Level FlightAware Transoceanic
05:25AM 27.0363 -141.2038 67° East 509 586 35,000  Level FlightAware Transoceanic
05:26AM 27.0924 -141.0578 67° East 509 586 35,000  Level FlightAware Transoceanic
05:27AM 27.1485 -140.9116 67° East 509 586 35,000  Level FlightAware Transoceanic
05:28AM 27.2043 -140.7653 67° East 509 586 35,000  Level FlightAware Transoceanic
05:29AM 27.2601 -140.6189 67° East 509 586 35,000  Level FlightAware Transoceanic
05:30AM 27.3156 -140.4722 67° East 509 586 35,000  Level FlightAware Transoceanic
05:31AM 27.3710 -140.3255 67° East 509 586 35,000  Level FlightAware Transoceanic
05:32AM 27.4263 -140.1786 67° East 509 586 35,000  Level FlightAware Transoceanic
05:33AM 27.4814 -140.0316 67° East 509 586 35,000  Level FlightAware Transoceanic
05:34AM 27.5364 -139.8844 67° East 509 586 35,000  Level FlightAware Transoceanic
05:35AM 27.5912 -139.7371 67° East 509 586 35,000  Level FlightAware Transoceanic
05:36AM 27.6458 -139.5896 67° East 509 586 35,000  Level FlightAware Transoceanic
05:37AM 27.7003 -139.4420 67° East 509 586 35,000  Level FlightAware Transoceanic
05:38AM 27.7546 -139.2942 67° East 509 586 35,000  Level FlightAware Transoceanic
05:39AM 27.8088 -139.1463 68° East 509 586 35,000  Level FlightAware Transoceanic
05:40AM 27.8628 -138.9982 68° East 509 586 35,000  Level FlightAware Transoceanic
05:41AM 27.9167 -138.8500 68° East 509 586 35,000  Level FlightAware Transoceanic
05:42AM 27.9677 -138.7089 68° East 509 586 35,000  Level FlightAware Transoceanic
05:43AM 28.0186 -138.5677 68° East 509 586 35,000  Level FlightAware Transoceanic
05:44AM 28.0693 -138.4264 68° East 509 586 35,000  Level FlightAware Transoceanic
05:44AM 27.9167 -138.8500 68° East 495 570 35,000  Level Oakland Oceanic (ODAPS)
05:45AM 28.1199 -138.2849 68° East 509 586 35,000  Level FlightAware Transoceanic
05:46AM 28.1704 -138.1433 68° East 509 586 35,000  Level FlightAware Transoceanic
05:47AM 28.2207 -138.0016 68° East 509 586 35,000  Level FlightAware Transoceanic
05:48AM 28.2709 -137.8597 68° East 509 586 35,000  Level FlightAware Transoceanic
05:49AM 28.3209 -137.7177 68° East 509 586 35,000  Level FlightAware Transoceanic
05:50AM 28.3799 -137.5494 68° East 495 570 35,000  Level FlightAware Transoceanic
05:51AM 28.4306 -137.4042 68° East 495 570 35,000  Level FlightAware Transoceanic
05:52AM 28.4812 -137.2589 68° East 495 570 35,000  Level FlightAware Transoceanic
05:53AM 28.5316 -137.1134 69° East 495 570 35,000  Level FlightAware Transoceanic
05:54AM 28.5818 -136.9678 69° East 495 570 35,000  Level FlightAware Transoceanic
05:55AM 28.6319 -136.8220 69° East 495 570 35,000  Level FlightAware Transoceanic
05:56AM 28.6818 -136.6761 69° East 495 570 35,000  Level FlightAware Transoceanic
05:57AM 28.7316 -136.5301 69° East 495 570 35,000  Level FlightAware Transoceanic
05:58AM 28.7812 -136.3839 69° East 495 570 35,000  Level FlightAware Transoceanic
05:59AM 28.8307 -136.2376 69° East 495 570 35,000  Level FlightAware Transoceanic
06:00AM 28.8800 -136.0912 69° East 495 570 35,000  Level FlightAware Transoceanic
06:01AM 28.9291 -135.9446 69° East 495 570 35,000  Level FlightAware Transoceanic
06:02AM 28.9781 -135.7979 69° East 495 570 35,000  Level FlightAware Transoceanic
06:03AM 29.0270 -135.6510 69° East 495 570 35,000  Level FlightAware Transoceanic
06:04AM 29.0756 -135.5040 69° East 495 570 35,000  Level FlightAware Transoceanic
06:05AM 29.1241 -135.3568 69° East 495 570 35,000  Level FlightAware Transoceanic
06:06AM 29.1725 -135.2095 69° East 495 570 35,000  Level FlightAware Transoceanic
06:07AM 29.2207 -135.0621 70° East 495 570 35,000  Level FlightAware Transoceanic
06:08AM 29.2687 -134.9146 70° East 495 570 35,000  Level FlightAware Transoceanic
06:09AM 29.3166 -134.7669 70° East 495 570 35,000  Level FlightAware Transoceanic
06:10AM 29.3643 -134.6190 70° East 495 570 35,000  Level FlightAware Transoceanic
06:11AM 29.4118 -134.4711 70° East 495 570 35,000  Level FlightAware Transoceanic
06:12AM 29.4592 -134.3229 70° East 495 570 35,000  Level FlightAware Transoceanic
06:13AM 29.5064 -134.1747 70° East 495 570 35,000  Level FlightAware Transoceanic
06:14AM 29.5534 -134.0263 70° East 495 570 35,000  Level FlightAware Transoceanic
06:15AM 29.6003 -133.8778 70° East 495 570 35,000  Level FlightAware Transoceanic
06:16AM 29.6470 -133.7291 70° East 495 570 35,000  Level FlightAware Transoceanic
06:17AM 29.6936 -133.5803 70° East 495 570 35,000  Level FlightAware Transoceanic
06:18AM 29.7399 -133.4313 70° East 495 570 35,000  Level FlightAware Transoceanic
06:19AM 29.7861 -133.2823 70° East 495 570 35,000  Level FlightAware Transoceanic
06:20AM 29.8322 -133.1330 70° East 495 570 35,000  Level FlightAware Transoceanic
06:21AM 29.8781 -132.9837 71° East 495 570 35,000  Level FlightAware Transoceanic
06:22AM 29.9238 -132.8342 71° East 495 570 35,000  Level FlightAware Transoceanic
06:23AM 29.9693 -132.6846 71° East 495 570 35,000  Level FlightAware Transoceanic
06:24AM 30.0147 -132.5348 71° East 495 570 35,000  Level FlightAware Transoceanic
06:25AM 30.0599 -132.3849 71° East 495 570 35,000  Level FlightAware Transoceanic
06:26AM 30.1049 -132.2349 71° East 495 570 35,000  Level FlightAware Transoceanic
06:27AM 30.1498 -132.0847 71° East 495 570 35,000  Level FlightAware Transoceanic
06:28AM 30.1945 -131.9344 71° East 495 570 35,000  Level FlightAware Transoceanic
06:29AM 30.2390 -131.7839 71° East 495 570 35,000  Level FlightAware Transoceanic
06:30AM 30.2833 -131.6333 71° East 495 570 35,000  Level FlightAware Transoceanic
06:31AM 30.3260 -131.4887 71° East 495 570 35,000  Level FlightAware Transoceanic
06:32AM 30.3686 -131.3439 71° East 495 570 35,000  Level FlightAware Transoceanic
06:33AM 30.4110 -131.1990 71° East 495 570 35,000  Level FlightAware Transoceanic
06:33AM 30.2833 -131.6333 71° East 476 548 35,000  Level Oakland Oceanic (ODAPS)
06:34AM 30.4532 -131.0540 71° East 495 570 35,000  Level FlightAware Transoceanic
06:35AM 30.4953 -130.9088 71° East 495 570 35,000  Level FlightAware Transoceanic
06:36AM 30.5372 -130.7636 72° East 495 570 35,000  Level FlightAware Transoceanic
06:37AM 30.5789 -130.6182 72° East 495 570 35,000  Level FlightAware Transoceanic
06:38AM 30.6205 -130.4727 72° East 495 570 35,000  Level FlightAware Transoceanic
06:39AM 30.6619 -130.3270 72° East 495 570 35,000  Level FlightAware Transoceanic
06:40AM 30.6619 -130.3270 72° East 476 548 35,000  Level FlightAware Transoceanic
06:41AM 30.7032 -130.1812 72° East 476 548 35,000  Level FlightAware Transoceanic
06:42AM 30.7443 -130.0354 72° East 476 548 35,000  Level FlightAware Transoceanic
06:43AM 30.7852 -129.8893 72° East 476 548 35,000  Level FlightAware Transoceanic
06:44AM 30.8260 -129.7432 72° East 476 548 35,000  Level FlightAware Transoceanic
06:45AM 30.8666 -129.5969 72° East 476 548 35,000  Level FlightAware Transoceanic
06:46AM 30.9071 -129.4505 72° East 476 548 35,000  Level FlightAware Transoceanic
06:47AM 30.9473 -129.3040 72° East 476 548 35,000  Level FlightAware Transoceanic
06:48AM 30.9874 -129.1574 72° East 476 548 35,000  Level FlightAware Transoceanic
06:49AM 31.0274 -129.0106 72° East 476 548 35,000  Level FlightAware Transoceanic
06:50AM 31.0672 -128.8637 72° East 476 548 35,000  Level FlightAware Transoceanic
06:51AM 31.1068 -128.7167 73° East 476 548 35,000  Level FlightAware Transoceanic
06:52AM 31.1462 -128.5696 73° East 476 548 35,000  Level FlightAware Transoceanic
06:53AM 31.1855 -128.4223 73° East 476 548 35,000  Level FlightAware Transoceanic
06:54AM 31.2246 -128.2749 73° East 476 548 35,000  Level FlightAware Transoceanic
06:55AM 31.2636 -128.1275 73° East 476 548 35,000  Level FlightAware Transoceanic
06:56AM 31.3023 -127.9798 73° East 476 548 35,000  Level FlightAware Transoceanic
06:57AM 31.3409 -127.8321 73° East 476 548 35,000  Level FlightAware Transoceanic
06:58AM 31.3794 -127.6842 73° East 476 548 35,000  Level FlightAware Transoceanic
06:59AM 31.4176 -127.5362 73° East 476 548 35,000  Level FlightAware Transoceanic
07:00AM 31.4557 -127.3882 73° East 476 548 35,000  Level FlightAware Transoceanic
07:01AM 31.4937 -127.2399 73° East 476 548 35,000  Level FlightAware Transoceanic
07:02AM 31.5314 -127.0916 73° East 476 548 35,000  Level FlightAware Transoceanic
07:03AM 31.5690 -126.9431 73° East 476 548 35,000  Level FlightAware Transoceanic
07:04AM 31.6064 -126.7945 74° East 476 548 35,000  Level FlightAware Transoceanic
07:05AM 31.6437 -126.6459 74° East 476 548 35,000  Level FlightAware Transoceanic
07:06AM 31.6807 -126.4970 74° East 476 548 35,000  Level FlightAware Transoceanic
07:07AM 31.7176 -126.3481 74° East 476 548 35,000  Level FlightAware Transoceanic
07:08AM 31.7543 -126.1990 74° East 476 548 35,000  Level FlightAware Transoceanic
07:09AM 31.7909 -126.0499 74° East 476 548 35,000  Level FlightAware Transoceanic
07:10AM 31.8272 -125.9006 74° East 476 548 35,000  Level FlightAware Transoceanic
07:11AM 31.8634 -125.7512 74° East 476 548 35,000  Level FlightAware Transoceanic
07:12AM 31.8995 -125.6016 74° East 476 548 35,000  Level FlightAware Transoceanic
07:13AM 31.9353 -125.4520 74° East 476 548 35,000  Level FlightAware Transoceanic
07:14AM 31.9710 -125.3022 74° East 476 548 35,000  Level FlightAware Transoceanic
07:15AM 32.0065 -125.1524 74° East 476 548 35,000  Level FlightAware Transoceanic
07:16AM 32.0418 -125.0024 75° East 476 548 35,000  Level FlightAware Transoceanic
07:17AM 32.0770 -124.8523 75° East 476 548 35,000  Level FlightAware Transoceanic
07:18AM 32.1119 -124.7020 75° East 476 548 35,000  Level FlightAware Transoceanic
07:19AM 32.1467 -124.5517 75° East 476 548 35,000  Level FlightAware Transoceanic
07:20AM 32.1813 -124.4012 75° East 476 548 35,000  Level FlightAware Transoceanic
07:21AM 32.2158 -124.2507 75° East 476 548 35,000  Level FlightAware Transoceanic
07:22AM 32.2500 -124.1000 77° East 476 548 35,000  Level FlightAware Transoceanic
07:23AM 32.2815 -123.9432 77° East 476 548 35,000 -120 Level FlightAware Transoceanic
07:23AM 32.2339 -124.0381 77° East 470 541 34,900  Descending Los Angeles Center
07:24AM 32.3129 -123.7862 77° East 476 548 35,000 60 Climbing FlightAware Transoceanic
07:24AM 32.2683 -123.8906 75° East 469 540 35,000  Level Los Angeles Center
07:25AM 32.3440 -123.6292 77° East 476 548 35,000  Level FlightAware Transoceanic
07:25AM 32.3003 -123.7406 76° East 470 541 35,000  Level Los Angeles Center
07:26AM 32.3750 -123.4721 77° East 476 548 35,000  Level FlightAware Transoceanic
07:26AM 32.3344 -123.5911 75° East 471 542 35,000  Level Los Angeles Center
07:27AM 32.4057 -123.3148 77° East 476 548 35,000  Level FlightAware Transoceanic
07:27AM 32.3697 -123.4450 74° East 468 539 35,000  Level Los Angeles Center
07:28AM 32.4363 -123.1575 77° East 476 548 35,000  Level FlightAware Transoceanic
07:28AM 32.4019 -123.2936 76° East 471 542 35,000 -120 Level Los Angeles Center
07:29AM 32.4375 -123.1433 74° East 475 547 34,900  Descending Los Angeles Center
07:30AM 32.4714 -122.9900 75° East 477 549 35,000  Climbing Los Angeles Center
07:31AM 32.5033 -122.8364 76° East 480 552 35,000  Level Los Angeles Center
07:32AM 32.5383 -122.6867 74° East 477 549 35,000 -60 Level Los Angeles Center
07:33AM 32.5708 -122.5322 76° East 480 552 34,900  Descending Los Angeles Center
07:34AM 32.6033 -122.3789 76° East 481 554 35,000  Climbing Los Angeles Center
07:35AM 32.6367 -122.2231 76° East 485 558 34,900 -60 Descending Los Angeles Center
07:36AM 32.6703 -122.0692 75° East 485 558 34,900  Level Los Angeles Center
07:37AM 32.7072 -121.9247 73° East 471 542 34,900  Level Los Angeles Center
07:38AM 32.7397 -121.7706 76° East 479 551 35,000  Climbing Los Angeles Center
07:39AM 32.7722 -121.6133 76° East 490 564 35,000  Level Los Angeles Center
07:40AM 32.8042 -121.4592 76° East 483 556 35,000  Level Los Angeles Center
07:41AM 32.8344 -121.3031 77° East 484 557 35,000  Level Los Angeles Center
07:42AM 32.8647 -121.1458 77° East 489 563 35,000  Level Los Angeles Center
07:43AM 32.8964 -120.9900 76° East 487 560 35,000  Level Los Angeles Center
07:44AM 32.9283 -120.8314 76° East 493 567 35,000  Level Los Angeles Center
07:45AM 32.9592 -120.6714 77° East 498 573 35,000  Level Los Angeles Center
07:46AM 32.9897 -120.5147 77° East 488 562 35,000 -60 Level Los Angeles Center
07:47AM 33.0203 -120.3556 77° East 493 567 34,900  Descending Los Angeles Center
07:48AM 33.0569 -120.1650 77° East 494 568 35,000  Climbing Los Angeles Center
07:49AM 33.0869 -120.0081 77° East 494 568 35,000  Level Los Angeles Center
07:50AM 33.1164 -119.8475 78° East 495 570 35,000  Level Los Angeles Center
07:51AM 33.1461 -119.6867 78° East 497 572 35,000  Level Los Angeles Center
07:52AM 33.1767 -119.5272 77° East 497 572 35,000  Level Los Angeles Center
07:53AM 33.2061 -119.3661 78° East 497 572 35,000  Level Los Angeles Center
07:54AM 33.2356 -119.2058 78° East 498 573 35,000  Level Los Angeles Center
07:55AM 33.2658 -119.0453 77° East 498 573 35,000  Level Los Angeles Center
07:56AM 33.2947 -118.8844 78° East 499 574 35,000  Level Los Angeles Center
07:57AM 33.3219 -118.7236 79° East 499 574 35,000  Level Los Angeles Center
07:58AM 33.3506 -118.5631 78° East 499 574 35,000  Level Los Angeles Center
07:59AM 33.3756 -118.4017 79° East 499 574 35,000  Level Los Angeles Center
08:00AM 33.3872 -118.2394 85° East 495 570 35,000  Level Los Angeles Center
08:01AM 33.3994 -118.0767 85° East 496 571 35,000  Level Los Angeles Center
08:02AM 33.4122 -117.9156 85° East 493 567 35,000  Level Los Angeles Center
08:03AM 33.4236 -117.7536 85° East 493 567 35,000  Level Los Angeles Center
08:04AM 33.4350 -117.5881 85° East 499 574 35,000  Level Los Angeles Center
08:05AM 33.4414 -117.4231 87° East 500 575 35,000  Level Los Angeles Center
08:06AM 33.4442 -117.2597 89° East 496 571 35,000  Level Los Angeles Center
08:07AM 33.4461 -117.0969 89° East 492 566 35,000  Level Los Angeles Center
08:08AM 33.4500 -116.9314 88° East 494 568 35,000  Level Los Angeles Center
08:09AM 33.4522 -116.7667 89° East 494 568 35,000  Level Los Angeles Center
08:10AM 33.4542 -116.6017 89° East 495 570 35,000  Level Los Angeles Center
08:11AM 33.4556 -116.4364 89° East 495 570 35,000  Level Los Angeles Center
08:12AM 33.4589 -116.2719 89° East 491 565 35,000  Level Los Angeles Center
08:13AM 33.4608 -116.1064 89° East 494 568 35,000  Level Los Angeles Center
08:14AM 33.4619 -115.9403 89° East 497 572 35,000  Level Los Angeles Center
08:15AM 33.4631 -115.7764 89° East 493 567 35,000  Level Los Angeles Center
08:16AM 33.4617 -115.6106 91° East 495 570 35,000 -60 Level Los Angeles Center
08:17AM 33.4625 -115.4450 90° East 497 572 34,900  Descending Los Angeles Center
08:18AM 33.4636 -115.2792 89° East 498 573 35,000  Climbing Los Angeles Center
08:19AM 33.4636 -115.1133 90° East 498 573 35,000 -60 Level Los Angeles Center
08:20AM 33.4639 -114.9494 90° East 493 567 34,900 -240 Descending Los Angeles Center
08:21AM 33.4633 -114.7853 90° East 494 568 34,600 -1,380 Descending Los Angeles Center
08:22AM 33.4636 -114.6206 90° East 494 568 32,200 -2,640 Descending Los Angeles Center
08:23AM 33.4636 -114.4564 90° East 494 568 29,400 -2,700 Descending Los Angeles Center
08:24AM 33.4667 -114.3000 89° East 490 564 27,100 -2,280 Descending Albuquerque Center
08:25AM 33.4661 -114.1425 90° East 478 550 25,100 -1,380 Descending Albuquerque Center
08:26AM 33.4497 -113.9978 98° East 449 517 24,400 -840 Descending Albuquerque Center
08:27AM 33.4183 -113.8539 105° East 444 511 23,400 -900 Descending Albuquerque Center
08:28AM 33.3908 -113.7103 103° East 443 510 22,600 -840 Descending Albuquerque Center
08:29AM 33.3606 -113.5708 105° East 436 502 21,800 -960 Descending Albuquerque Center
08:30AM 33.3322 -113.4294 103° East 436 502 20,700 -1,740 Descending Albuquerque Center
08:31AM 33.3039 -113.2919 104° East 430 495 18,400 -1,920 Descending Albuquerque Center
08:32AM 33.2775 -113.1600 103° East 416 479 16,900 -1,140 Descending Albuquerque Center
08:33AM 33.2750 -113.0425 91° East 360 414 16,200 -420 Descending Albuquerque Center
08:34AM 33.2778 -112.9292 88° East 343 395 16,100 -180 Descending Albuquerque Center
08:35AM 33.2817 -112.8189 88° East 338 389 15,900 -660 Descending Albuquerque Center
08:36AM 33.2825 -112.6900 90° East 331 381 14,800 -1,140 Descending Albuquerque Center
08:37AM 33.2856 -112.5875 88° East 323 372 13,700 -1,140 Descending Albuquerque Center
08:38AM 33.2889 -112.4925 88° East 295 339 12,600 -1,200 Descending Albuquerque Center
08:39AM 33.2914 -112.3928 88° East 299 344 11,400 -1,080 Descending Albuquerque Center
08:40AM 33.2969 -112.2936 86° East 300 345 10,500 -900 Descending Albuquerque Center
08:41AM 33.3028 -112.1961 86° East 296 341 9,700 -780 Descending Albuquerque Center
08:42AM 33.3108 -112.1033 84° East 285 328 9,000 -900 Descending Albuquerque Center
08:43AM 33.3308 -112.0208 74° East 264 304 7,900 -1,080 Descending Albuquerque Center
08:44AM 33.3469 -111.9431 76° East 244 281 6,900 -1,320 Descending Albuquerque Center
08:45AM 33.3447 -111.8642 92° East 237 273 5,300 -960 Descending Albuquerque Center
08:46AM 33.3439 -111.7856 91° East 237 273 5,000 -180 Descending Albuquerque Center
08:47AM 33.3603 -111.7203 73° East 219 252 5,000 -120 Level Albuquerque Center
08:48AM 33.4086 -111.7372 344° North 199 229 4,800 -240 Descending Albuquerque Center